Time;durP1;ratioP1;P1;durP2;ratioP2;P2;SDS_P1;SDS_P2;PMS_P1;PMS_P2;Temp;Humidity;BMP_temperature;BMP_pressure;BME280_temperature;BME280_humidity;BME280_pressure;Samples;Min_cycle;Max_cycle;Signal;HPM_P1;HPM_P2
2024/04/05 00:01:57;;;;;;;;;;;;;;;;;;7585610;19;20671;-74
2024/04/05 00:04:28;;;;;;;;;;;;;;;;;;7554344;19;19922;-74
2024/04/05 00:07:00;;;;;;;;;;;;;;;;;;7579572;19;20313;-75
2024/04/05 00:09:31;;;;;;;;;;;;;;;;;;7591952;19;19935;-74
2024/04/05 00:12:03;;;;;;;;;;;;;;;;;;7586284;19;19939;-74
2024/04/05 00:14:34;;;;;;;;;;;;;;;;;;7586134;19;19923;-74
2024/04/05 00:17:05;;;;;;;;;;;;;;;;;;7596382;19;19926;-74
2024/04/05 00:19:37;;;;;;;;;;;;;;;;;;7586528;19;20582;-73
2024/04/05 00:22:09;;;;;;;;;;;;;;;;;;7583861;19;19914;-73
2024/04/05 00:24:40;;;;;;;;;;;;;;;;;;7583917;19;19919;-73
2024/04/05 00:27:12;;;;;;;;;;;;;;;;;;7570373;19;20164;-72
2024/04/05 00:29:43;;;;;;;;;;;;;;;;;;7580562;19;19919;-72
2024/04/05 00:32:15;;;;;;;;;;;;;;;;;;7580765;19;19923;-73
2024/04/05 00:34:47;;;;;;;;;;;;;;;;;;7572832;19;19923;-74
2024/04/05 00:37:18;;;;;;;;;;;;;;;;;;7567863;19;19919;-74
2024/04/05 00:39:50;;;;;;;;;;;;;;;;;;7580868;19;19983;-75
2024/04/05 00:42:21;;;;;;;;;;;;;;;;;;7577190;19;19923;-74
2024/04/05 00:44:53;;;;;;;;;;;;;;;;;;7583473;19;19919;-74
2024/04/05 00:47:24;;;;;;;;;;;;;;;;;;7597752;19;19922;-75
2024/04/05 00:49:56;;;;;;;;;;;;;;;;;;7603829;19;19919;-75
2024/04/05 00:52:27;;;;;;;;;;;;;;;;;;7585160;19;19922;-74
2024/04/05 00:54:59;;;;;;;;;;;;;;;;;;7595321;19;19914;-74
2024/04/05 00:57:30;;;;;;;;;;;;;;;;;;7588420;19;19942;-74
2024/04/05 01:00:04;;;;;;;;;;;;;;;;;;7585486;19;21849;-75
2024/04/05 01:02:36;;;;;;;;;;;;;;;;;;7583168;19;20708;-75
2024/04/05 01:05:08;;;;;;;;;;;;;;;;;;7577637;19;19950;-75
2024/04/05 01:07:39;;;;;;;;;;;;;;;;;;7583092;19;19914;-75
2024/04/05 01:10:11;;;;;;;;;;;;;;;;;;7568513;19;19915;-74
2024/04/05 01:12:42;;;;;;;;;;;;;;;;;;7574848;19;19926;-74
2024/04/05 01:15:14;;;;;;;;;;;;;;;;;;7588001;19;19922;-75
2024/04/05 01:17:45;;;;;;;;;;;;;;;;;;7575936;19;20258;-75
2024/04/05 01:20:16;;;;;;;;;;;;;;;;;;7580628;19;19925;-75
2024/04/05 01:22:48;;;;;;;;;;;;;;;;;;7580837;19;19950;-74
2024/04/05 01:25:19;;;;;;;;;;;;;;;;;;7587973;19;19923;-75
2024/04/05 01:27:50;;;;;;;;;;;;;;;;;;7575598;19;20369;-74
2024/04/05 01:30:22;;;;;;;;;;;;;;;;;;7570457;19;20459;-74
2024/04/05 01:32:54;;;;;;;;;;;;;;;;;;7586976;19;20495;-74
2024/04/05 01:35:26;;;;;;;;;;;;;;;;;;7583257;19;19929;-74
2024/04/05 01:37:58;;;;;;;;;;;;;;;;;;7572905;19;20593;-74
2024/04/05 01:40:29;;;;;;;;;;;;;;;;;;7583376;19;20951;-74
2024/04/05 01:43:01;;;;;;;;;;;;;;;;;;7571380;19;20011;-74
2024/04/05 01:45:33;;;;;;;;;;;;;;;;;;7576412;19;19940;-75
2024/04/05 01:48:04;;;;;;;;;;;;;;;;;;7565509;19;19918;-74
2024/04/05 01:50:35;;;;;;;;;;;;;;;;;;7579076;19;19923;-74
2024/04/05 01:53:07;;;;;;;;;;;;;;;;;;7587358;19;19938;-75
2024/04/05 01:55:38;;;;;;;;;;;;;;;;;;7580547;19;19934;-74
2024/04/05 01:58:10;;;;;;;;;;;;;;;;;;7575201;19;19974;-75
2024/04/05 02:00:42;;;;;;;;;;;;;;;;;;7578918;19;19918;-75
2024/04/05 02:03:14;;;;;;;;;;;;;;;;;;7590777;19;19941;-75
2024/04/05 02:05:45;;;;;;;;;;;;;;;;;;7568733;19;19933;-75
2024/04/05 02:08:17;;;;;;;;;;;;;;;;;;7588861;19;20822;-75
2024/04/05 02:10:48;;;;;;;;;;;;;;;;;;7587167;19;19930;-75
2024/04/05 02:13:19;;;;;;;;;;;;;;;;;;7581808;19;19926;-74
2024/04/05 02:15:51;;;;;;;;;;;;;;;;;;7569963;19;20339;-75
2024/04/05 02:18:23;;;;;;;;;;;;;;;;;;7590357;19;20419;-74
2024/04/05 02:20:55;;;;;;;;;;;;;;;;;;7571005;19;19922;-74
2024/04/05 02:23:26;;;;;;;;;;;;;;;;;;7587099;19;19923;-73
2024/04/05 02:25:58;;;;;;;;;;;;;;;;;;7567097;19;19926;-73
2024/04/05 02:28:29;;;;;;;;;;;;;;;;;;7578549;19;19919;-74
2024/04/05 02:31:01;;;;;;;;;;;;;;;;;;7582139;19;19932;-74
2024/04/05 02:33:33;;;;;;;;;;;;;;;;;;7597786;19;20331;-75
2024/04/05 02:36:04;;;;;;;;;;;;;;;;;;7591235;19;19925;-76
2024/04/05 02:38:36;;;;;;;;;;;;;;;;;;7586214;19;19942;-75
2024/04/05 02:41:07;;;;;;;;;;;;;;;;;;7572796;19;20483;-76
2024/04/05 02:43:41;;;;;;;;;;;;;;;;;;7579095;19;19923;-75
2024/04/05 02:46:13;;;;;;;;;;;;;;;;;;7588634;19;20026;-74
2024/04/05 02:48:44;;;;;;;;;;;;;;;;;;7589773;19;19935;-74
2024/04/05 02:51:16;;;;;;;;;;;;;;;;;;7598647;19;19999;-74
2024/04/05 02:53:47;;;;;;;;;;;;;;;;;;7587314;19;19922;-75
2024/04/05 02:56:19;;;;;;;;;;;;;;;;;;7595984;19;19914;-75
2024/04/05 02:58:51;;;;;;;;;;;;;;;;;;7591188;19;19919;-74
2024/04/05 03:01:22;;;;;;;;;;;;;;;;;;7599320;19;19923;-75
2024/04/05 03:03:53;;;;;;;;;;;;;;;;;;7588085;19;20450;-75
2024/04/05 03:06:25;;;;;;;;;;;;;;;;;;7599326;19;19926;-75
2024/04/05 03:08:56;;;;;;;;;;;;;;;;;;7589862;19;20533;-76
2024/04/05 03:11:28;;;;;;;;;;;;;;;;;;7583414;19;19974;-75
2024/04/05 03:14:00;;;;;;;;;;;;;;;;;;7566419;19;20017;-75
2024/04/05 03:16:31;;;;;;;;;;;;;;;;;;7584789;19;19982;-75
2024/04/05 03:19:03;;;;;;;;;;;;;;;;;;7574449;19;19973;-74
2024/04/05 03:21:35;;;;;;;;;;;;;;;;;;7584003;19;19922;-75
2024/04/05 03:24:06;;;;;;;;;;;;;;;;;;7578646;19;19926;-75
2024/04/05 03:26:39;;;;;;;;;;;;;;;;;;7590041;19;19940;-74
2024/04/05 03:29:10;;;;;;;;;;;;;;;;;;7593841;19;19947;-74
2024/04/05 03:31:42;;;;;;;;;;;;;;;;;;7578504;19;19923;-75
2024/04/05 03:34:13;;;;;;;;;;;;;;;;;;7577483;19;19934;-75
2024/04/05 03:36:45;;;;;;;;;;;;;;;;;;7597008;19;20102;-74
2024/04/05 03:39:16;;;;;;;;;;;;;;;;;;7577379;19;19918;-76
2024/04/05 03:41:48;;;;;;;;;;;;;;;;;;7584796;19;19998;-75
2024/04/05 03:44:20;;;;;;;;;;;;;;;;;;7557447;19;21013;-75
2024/04/05 03:46:51;;;;;;;;;;;;;;;;;;7589421;19;19945;-75
2024/04/05 03:49:24;;;;;;;;;;;;;;;;;;7588599;19;19926;-75
2024/04/05 03:51:56;;;;;;;;;;;;;;;;;;7586815;19;20665;-75
2024/04/05 03:54:28;;;;;;;;;;;;;;;;;;7593760;19;20821;-75
2024/04/05 03:56:59;;;;;;;;;;;;;;;;;;7594189;19;19919;-75
2024/04/05 03:59:31;;;;;;;;;;;;;;;;;;7593839;19;19952;-75
2024/04/05 04:02:02;;;;;;;;;;;;;;;;;;7578732;19;19921;-75
2024/04/05 04:04:33;;;;;;;;;;;;;;;;;;7592315;19;19923;-74
2024/04/05 04:07:05;;;;;;;;;;;;;;;;;;7582493;19;19929;-75
2024/04/05 04:09:36;;;;;;;;;;;;;;;;;;7584773;19;19929;-74
2024/04/05 04:12:08;;;;;;;;;;;;;;;;;;7580466;19;19943;-73
2024/04/05 04:14:39;;;;;;;;;;;;;;;;;;7578632;19;19927;-74
2024/04/05 04:17:11;;;;;;;;;;;;;;;;;;7582100;19;19923;-73
2024/04/05 04:19:42;;;;;;;;;;;;;;;;;;7601559;19;19926;-72
2024/04/05 04:22:14;;;;;;;;;;;;;;;;;;7583905;19;19926;-72
2024/04/05 04:24:46;;;;;;;;;;;;;;;;;;7590741;19;19926;-73
2024/04/05 04:27:17;;;;;;;;;;;;;;;;;;7579332;19;19929;-73
2024/04/05 04:29:48;;;;;;;;;;;;;;;;;;7589497;19;19919;-73
2024/04/05 04:32:20;;;;;;;;;;;;;;;;;;7575810;19;19922;-75
2024/04/05 04:34:52;;;;;;;;;;;;;;;;;;7588278;19;20840;-74
2024/04/05 04:37:23;;;;;;;;;;;;;;;;;;7593910;19;19922;-74
2024/04/05 04:39:54;;;;;;;;;;;;;;;;;;7586517;19;19928;-72
2024/04/05 04:42:26;;;;;;;;;;;;;;;;;;7584349;19;20748;-73
2024/04/05 04:44:57;;;;;;;;;;;;;;;;;;7590541;19;19935;-73
2024/04/05 04:47:29;;;;;;;;;;;;;;;;;;7589414;19;20277;-73
2024/04/05 04:50:00;;;;;;;;;;;;;;;;;;7581562;19;19922;-73
2024/04/05 04:52:32;;;;;;;;;;;;;;;;;;7587683;19;19921;-75
2024/04/05 04:55:03;;;;;;;;;;;;;;;;;;7590880;19;19923;-76
2024/04/05 04:57:35;;;;;;;;;;;;;;;;;;7569799;19;20269;-74
2024/04/05 05:00:06;;;;;;;;;;;;;;;;;;7580352;19;19935;-75
2024/04/05 05:02:38;;;;;;;;;;;;;;;;;;7589881;19;19925;-75
2024/04/05 05:05:11;;;;;;;;;;;;;;;;;;7598384;19;19926;-75
2024/04/05 05:07:43;;;;;;;;;;;;;;;;;;7561471;19;19915;-74
2024/04/05 05:10:15;;;;;;;;;;;;;;;;;;7593207;19;19965;-74
2024/04/05 05:12:47;;;;;;;;;;;;;;;;;;7603509;19;20038;-75
2024/04/05 05:15:18;;;;;;;;;;;;;;;;;;7594896;19;20424;-74
2024/04/05 05:17:50;;;;;;;;;;;;;;;;;;7601552;19;19959;-76
2024/04/05 05:20:26;;;;;;;;;;;;;;;;;;7584915;19;20277;-74
2024/04/05 05:22:58;;;;;;;;;;;;;;;;;;7588788;19;19946;-75
2024/04/05 05:25:29;;;;;;;;;;;;;;;;;;7600616;19;19952;-75
2024/04/05 05:28:01;;;;;;;;;;;;;;;;;;7585463;19;19923;-75
2024/04/05 05:30:33;;;;;;;;;;;;;;;;;;7589705;19;19914;-76
2024/04/05 05:33:04;;;;;;;;;;;;;;;;;;7596931;19;19998;-76
2024/04/05 05:35:36;;;;;;;;;;;;;;;;;;7594666;19;19923;-75
2024/04/05 05:38:08;;;;;;;;;;;;;;;;;;7592356;19;19923;-75
2024/04/05 05:40:39;;;;;;;;;;;;;;;;;;7594066;19;19996;-76
2024/04/05 05:43:10;;;;;;;;;;;;;;;;;;7595397;19;19923;-75
2024/04/05 05:45:42;;;;;;;;;;;;;;;;;;7584253;19;19919;-75
2024/04/05 05:48:13;;;;;;;;;;;;;;;;;;7586073;19;19926;-76
2024/04/05 05:50:45;;;;;;;;;;;;;;;;;;7589388;19;19927;-78
2024/04/05 05:53:16;;;;;;;;;;;;;;;;;;7588813;19;19915;-76
2024/04/05 05:55:48;;;;;;;;;;;;;;;;;;7581073;19;19936;-76
2024/04/05 05:58:19;;;;;;;;;;;;;;;;;;7591739;19;19964;-76
2024/04/05 06:00:51;;;;;;;;;;;;;;;;;;7584450;19;21267;-76
2024/04/05 06:03:22;;;;;;;;;;;;;;;;;;7579862;19;19923;-76
2024/04/05 06:05:54;;;;;;;;;;;;;;;;;;7592345;19;20288;-76
2024/04/05 06:08:26;;;;;;;;;;;;;;;;;;7582208;19;20533;-76
2024/04/05 06:10:58;;;;;;;;;;;;;;;;;;7575096;19;19915;-74
2024/04/05 06:13:29;;;;;;;;;;;;;;;;;;7561307;19;20570;-75
2024/04/05 06:16:01;;;;;;;;;;;;;;;;;;7571516;19;20388;-76
2024/04/05 06:18:32;;;;;;;;;;;;;;;;;;7590063;19;19919;-75
2024/04/05 06:21:04;;;;;;;;;;;;;;;;;;7590053;19;19927;-75
2024/04/05 06:23:35;;;;;;;;;;;;;;;;;;7590452;19;20372;-76
2024/04/05 06:26:07;;;;;;;;;;;;;;;;;;7580331;19;19923;-75
2024/04/05 06:28:39;;;;;;;;;;;;;;;;;;7562051;19;19947;-74
2024/04/05 06:31:11;;;;;;;;;;;;;;;;;;7588650;19;19944;-75
2024/04/05 06:33:44;;;;;;;;;;;;;;;;;;7572381;19;19918;-75
2024/04/05 06:36:15;;;;;;;;;;;;;;;;;;7575556;19;19974;-75
2024/04/05 06:38:47;;;;;;;;;;;;;;;;;;7577219;19;19959;-75
2024/04/05 06:41:18;;;;;;;;;;;;;;;;;;7578949;19;19926;-75
2024/04/05 06:43:50;;;;;;;;;;;;;;;;;;7538408;19;21075;-74
2024/04/05 06:46:21;;;;;;;;;;;;;;;;;;7580875;19;20448;-75
2024/04/05 06:48:53;;;;;;;;;;;;;;;;;;7595392;19;19950;-75
2024/04/05 06:51:24;;;;;;;;;;;;;;;;;;7597900;19;19926;-76
2024/04/05 06:53:56;;;;;;;;;;;;;;;;;;7577229;19;19911;-73
2024/04/05 06:56:27;;;;;;;;;;;;;;;;;;7587138;19;20651;-74
2024/04/05 06:58:59;;;;;;;;;;;;;;;;;;7591269;19;19911;-75
2024/04/05 07:01:31;;;;;;;;;;;;;;;;;;7586415;19;19917;-75
2024/04/05 07:04:03;;;;;;;;;;;;;;;;;;7584606;19;19919;-74
2024/04/05 07:06:35;;;;;;;;;;;;;;;;;;7572384;19;19930;-75
2024/04/05 07:09:08;;;;;;;;;;;;;;;;;;7579411;19;20045;-74
2024/04/05 07:11:40;;;;;;;;;;;;;;;;;;7589034;19;19926;-74
2024/04/05 07:14:12;;;;;;;;;;;;;;;;;;7576278;19;19930;-74
2024/04/05 07:16:43;;;;;;;;;;;;;;;;;;7577318;19;19923;-75
2024/04/05 07:19:14;;;;;;;;;;;;;;;;;;7575966;19;19922;-75
2024/04/05 07:21:46;;;;;;;;;;;;;;;;;;7582148;19;19921;-75
2024/04/05 07:24:17;;;;;;;;;;;;;;;;;;7574818;19;19919;-75
2024/04/05 07:26:49;;;;;;;;;;;;;;;;;;7595318;19;20276;-75
2024/04/05 07:29:21;;;;;;;;;;;;;;;;;;7580138;19;19935;-74
2024/04/05 07:31:53;;;;;;;;;;;;;;;;;;7583326;19;19919;-74
2024/04/05 07:34:25;;;;;;;;;;;;;;;;;;7581620;19;19998;-75
2024/04/05 07:36:56;;;;;;;;;;;;;;;;;;7592385;19;19939;-75
2024/04/05 07:39:28;;;;;;;;;;;;;;;;;;7574483;19;19919;-75
2024/04/05 07:41:59;;;;;;;;;;;;;;;;;;7567318;19;19950;-73
2024/04/05 07:44:31;;;;;;;;;;;;;;;;;;7586837;19;20171;-74
2024/04/05 07:47:02;;;;;;;;;;;;;;;;;;7579615;19;19935;-74
2024/04/05 07:49:34;;;;;;;;;;;;;;;;;;7590819;19;19919;-74
2024/04/05 07:52:05;;;;;;;;;;;;;;;;;;7600845;19;19927;-74
2024/04/05 07:54:36;;;;;;;;;;;;;;;;;;7591322;19;20561;-74
2024/04/05 07:57:08;;;;;;;;;;;;;;;;;;7588729;19;20296;-74
2024/04/05 07:59:40;;;;;;;;;;;;;;;;;;7568284;19;19931;-73
2024/04/05 08:02:11;;;;;;;;;;;;;;;;;;7580983;19;19922;-74
2024/04/05 08:04:43;;;;;;;;;;;;;;;;;;7583523;19;19926;-74
2024/04/05 08:07:14;;;;;;;;;;;;;;;;;;7587600;19;19931;-74
2024/04/05 08:09:46;;;;;;;;;;;;;;;;;;7591305;19;19926;-75
2024/04/05 08:12:17;;;;;;;;;;;;;;;;;;7562867;19;20848;-75
2024/04/05 08:14:49;;;;;;;;;;;;;;;;;;7574985;19;20340;-75
2024/04/05 08:17:21;;;;;;;;;;;;;;;;;;7593858;19;19932;-75
2024/04/05 08:19:52;;;;;;;;;;;;;;;;;;7586504;19;19929;-74
2024/04/05 08:22:24;;;;;;;;;;;;;;;;;;7583601;19;19930;-73
2024/04/05 08:24:55;;;;;;;;;;;;;;;;;;7599620;19;20755;-74
2024/04/05 08:27:28;;;;;;;;;;;;;;;;;;7571150;19;19919;-73
2024/04/05 08:29:59;;;;;;;;;;;;;;;;;;7557474;19;19990;-72
2024/04/05 08:32:31;;;;;;;;;;;;;;;;;;7573875;19;19922;-72
2024/04/05 08:35:04;;;;;;;;;;;;;;;;;;7561198;19;20817;-72
2024/04/05 08:37:35;;;;;;;;;;;;;;;;;;7583480;19;19926;-75
2024/04/05 08:40:10;;;;;;;;;;;;;;;;;;7593620;19;20041;-75
2024/04/05 08:42:41;;;;;;;;;;;;;;;;;;7587401;19;19937;-75
2024/04/05 08:45:12;;;;;;;;;;;;;;;;;;7583832;19;19922;-74
2024/04/05 08:47:44;;;;;;;;;;;;;;;;;;7579519;19;20325;-75
2024/04/05 08:50:15;;;;;;;;;;;;;;;;;;7580603;19;19923;-73
2024/04/05 08:52:47;;;;;;;;;;;;;;;;;;7586607;19;19919;-74
2024/04/05 08:55:19;;;;;;;;;;;;;;;;;;7584546;19;19918;-74
2024/04/05 08:57:51;;;;;;;;;;;;;;;;;;7575411;19;20897;-74
2024/04/05 09:00:26;;;;;;;;;;;;;;;;;;7590633;19;19950;-74
2024/04/05 09:02:57;;;;;;;;;;;;;;;;;;7579018;19;21356;-74
2024/04/05 09:05:28;;;;;;;;;;;;;;;;;;7568894;19;19938;-74
2024/04/05 09:08:00;;;;;;;;;;;;;;;;;;7579346;19;19998;-74
2024/04/05 09:10:32;;;;;;;;;;;;;;;;;;7584275;19;19938;-74
2024/04/05 09:13:04;;;;;;;;;;;;;;;;;;7568958;19;19943;-74
2024/04/05 09:15:36;;;;;;;;;;;;;;;;;;7568833;19;19970;-74
2024/04/05 09:18:07;;;;;;;;;;;;;;;;;;7580760;19;19922;-75
2024/04/05 09:20:39;;;;;;;;;;;;;;;;;;7580135;19;20843;-74
2024/04/05 09:23:10;;;;;;;;;;;;;;;;;;7580408;19;19922;-74
2024/04/05 09:25:42;;;;;;;;;;;;;;;;;;7575920;19;19931;-75
2024/04/05 09:28:18;;;;;;;;;;;;;;;;;;7576623;19;19923;-75
2024/04/05 09:30:51;;;;;;;;;;;;;;;;;;7577898;19;19990;-75
2024/04/05 09:33:22;;;;;;;;;;;;;;;;;;7573789;19;19919;-73
2024/04/05 09:35:55;;;;;;;;;;;;;;;;;;7574575;19;19943;-75
2024/04/05 09:38:26;;;;;;;;;;;;;;;;;;7559100;19;20352;-73
2024/04/05 09:40:58;;;;;;;;;;;;;;;;;;7567131;19;19923;-73
2024/04/05 09:43:30;;;;;;;;;;;;;;;;;;7565613;19;20425;-73
2024/04/05 09:46:04;;;;;;;;;;;;;;;;;;7574943;19;20783;-73
2024/04/05 09:48:35;;;;;;;;;;;;;;;;;;7568973;19;20002;-72
2024/04/05 09:51:07;;;;;;;;;;;;;;;;;;7576882;19;20552;-73
2024/04/05 09:53:40;;;;;;;;;;;;;;;;;;7561952;19;19922;-74
2024/04/05 09:56:12;;;;;;;;;;;;;;;;;;7564599;19;20491;-73
2024/04/05 09:58:44;;;;;;;;;;;;;;;;;;7558164;19;19923;-73
2024/04/05 10:01:16;;;;;;;;;;;;;;;;;;7582826;19;20249;-74
2024/04/05 10:03:47;;;;;;;;;;;;;;;;;;7572639;19;19918;-73
2024/04/05 10:06:19;;;;;;;;;;;;;;;;;;7566528;19;19930;-74
2024/04/05 10:08:50;;;;;;;;;;;;;;;;;;7574802;19;20196;-74
2024/04/05 10:11:23;;;;;;;;;;;;;;;;;;7567023;19;19937;-75
2024/04/05 10:13:54;;;;;;;;;;;;;;;;;;7563339;19;20003;-75
2024/04/05 10:16:26;;;;;;;;;;;;;;;;;;7567710;19;19926;-75
2024/04/05 10:18:57;;;;;;;;;;;;;;;;;;7581033;19;19943;-75
2024/04/05 10:21:29;;;;;;;;;;;;;;;;;;7570980;19;19937;-75
2024/04/05 10:24:00;;;;;;;;;;;;;;;;;;7587991;19;19925;-75
2024/04/05 10:26:33;;;;;;;;;;;;;;;;;;7581546;19;19946;-74
2024/04/05 10:29:05;;;;;;;;;;;;;;;;;;7574060;19;19916;-75
2024/04/05 10:31:36;;;;;;;;;;;;;;;;;;7553707;19;20597;-75
2024/04/05 10:34:08;;;;;;;;;;;;;;;;;;7574527;19;19950;-74
2024/04/05 10:36:40;;;;;;;;;;;;;;;;;;7579583;19;19929;-75
2024/04/05 10:39:18;;;;;;;;;;;;;;;;;;7571573;19;20356;-75
2024/04/05 10:41:50;;;;;;;;;;;;;;;;;;7559363;19;19926;-75
2024/04/05 10:44:23;;;;;;;;;;;;;;;;;;7574576;19;20794;-77
2024/04/05 10:46:54;;;;;;;;;;;;;;;;;;7579163;19;19923;-76
2024/04/05 10:49:26;;;;;;;;;;;;;;;;;;7575905;19;19937;-76
2024/04/05 10:51:57;;;;;;;;;;;;;;;;;;7566032;19;19922;-75
2024/04/05 10:54:29;;;;;;;;;;;;;;;;;;7555128;19;20392;-74
2024/04/05 10:57:00;;;;;;;;;;;;;;;;;;7567446;19;19923;-73
2024/04/05 10:59:32;;;;;;;;;;;;;;;;;;7563722;19;19923;-74
2024/04/05 11:02:04;;;;;;;;;;;;;;;;;;7562044;19;19931;-74
2024/04/05 11:04:35;;;;;;;;;;;;;;;;;;7571122;19;19927;-74
2024/04/05 11:07:09;;;;;;;;;;;;;;;;;;7557724;19;19930;-73
2024/04/05 11:09:42;;;;;;;;;;;;;;;;;;7579478;19;19933;-74
2024/04/05 11:12:13;;;;;;;;;;;;;;;;;;7587759;19;19918;-74
2024/04/05 11:14:45;;;;;;;;;;;;;;;;;;7570724;19;19939;-75
2024/04/05 11:17:16;;;;;;;;;;;;;;;;;;7580508;19;20433;-74
2024/04/05 11:19:48;;;;;;;;;;;;;;;;;;7556766;19;20757;-74
2024/04/05 11:22:20;;;;;;;;;;;;;;;;;;7586250;19;19923;-74
2024/04/05 11:24:51;;;;;;;;;;;;;;;;;;7564645;19;19927;-74
2024/04/05 11:27:23;;;;;;;;;;;;;;;;;;7574826;19;19950;-74
2024/04/05 11:29:55;;;;;;;;;;;;;;;;;;7556766;19;20025;-74
2024/04/05 11:32:26;;;;;;;;;;;;;;;;;;7575786;19;19919;-74
2024/04/05 11:34:58;;;;;;;;;;;;;;;;;;7579661;19;20345;-74
2024/04/05 11:37:29;;;;;;;;;;;;;;;;;;7568158;19;20297;-73
2024/04/05 11:40:01;;;;;;;;;;;;;;;;;;7582692;19;20353;-73
2024/04/05 11:42:33;;;;;;;;;;;;;;;;;;7550535;19;19932;-73
2024/04/05 11:45:05;;;;;;;;;;;;;;;;;;7561682;19;19926;-73
2024/04/05 11:47:37;;;;;;;;;;;;;;;;;;7582684;19;19923;-73
2024/04/05 11:50:09;;;;;;;;;;;;;;;;;;7579437;19;19927;-72
2024/04/05 11:52:41;;;;;;;;;;;;;;;;;;7577411;19;19923;-73
2024/04/05 11:55:12;;;;;;;;;;;;;;;;;;7589842;19;20312;-73
2024/04/05 11:57:44;;;;;;;;;;;;;;;;;;7574898;19;19923;-73
2024/04/05 12:00:16;;;;;;;;;;;;;;;;;;7582741;19;19935;-72
2024/04/05 12:02:47;;;;;;;;;;;;;;;;;;7578006;19;19926;-72
2024/04/05 12:05:21;;;;;;;;;;;;;;;;;;7584459;19;19922;-73
2024/04/05 12:07:52;;;;;;;;;;;;;;;;;;7567486;19;19939;-72
2024/04/05 12:10:24;;;;;;;;;;;;;;;;;;7589453;19;19952;-72
2024/04/05 12:12:55;;;;;;;;;;;;;;;;;;7548327;19;20660;-72
2024/04/05 12:15:27;;;;;;;;;;;;;;;;;;7594805;19;20403;-73
2024/04/05 12:17:59;;;;;;;;;;;;;;;;;;7593235;19;19925;-72
2024/04/05 12:20:30;;;;;;;;;;;;;;;;;;7581258;19;19951;-73
2024/04/05 12:23:02;;;;;;;;;;;;;;;;;;7588974;19;19918;-73
2024/04/05 12:25:34;;;;;;;;;;;;;;;;;;7586175;19;19991;-73
2024/04/05 12:28:05;;;;;;;;;;;;;;;;;;7582747;19;19922;-72
2024/04/05 12:30:37;;;;;;;;;;;;;;;;;;7584942;19;20679;-72
2024/04/05 12:33:09;;;;;;;;;;;;;;;;;;7584157;19;19933;-72
2024/04/05 12:35:41;;;;;;;;;;;;;;;;;;7571803;19;19923;-71
2024/04/05 12:38:12;;;;;;;;;;;;;;;;;;7580731;19;19922;-72
2024/04/05 12:40:46;;;;;;;;;;;;;;;;;;7588111;19;19994;-72
2024/04/05 12:43:17;;;;;;;;;;;;;;;;;;7568199;19;20720;-72
2024/04/05 12:45:48;;;;;;;;;;;;;;;;;;7570076;19;20331;-71
2024/04/05 12:48:20;;;;;;;;;;;;;;;;;;7580609;19;20339;-72
2024/04/05 12:50:51;;;;;;;;;;;;;;;;;;7587246;19;20775;-72
2024/04/05 12:53:23;;;;;;;;;;;;;;;;;;7572899;19;19930;-72
2024/04/05 12:55:54;;;;;;;;;;;;;;;;;;7569619;19;20058;-72
2024/04/05 12:58:26;;;;;;;;;;;;;;;;;;7579107;19;20152;-71
2024/04/05 13:00:58;;;;;;;;;;;;;;;;;;7575094;19;20872;-72
2024/04/05 13:03:32;;;;;;;;;;;;;;;;;;7574182;19;20779;-71
2024/04/05 13:06:03;;;;;;;;;;;;;;;;;;7570818;19;19926;-72
2024/04/05 13:08:35;;;;;;;;;;;;;;;;;;7572254;19;19922;-71
2024/04/05 13:11:07;;;;;;;;;;;;;;;;;;7554415;19;19963;-73
2024/04/05 13:13:39;;;;;;;;;;;;;;;;;;7586282;19;19990;-71
2024/04/05 13:16:10;;;;;;;;;;;;;;;;;;7577719;19;19918;-73
2024/04/05 13:18:41;;;;;;;;;;;;;;;;;;7585293;19;19919;-71
2024/04/05 13:21:13;;;;;;;;;;;;;;;;;;7575421;19;20620;-71
2024/04/05 13:23:45;;;;;;;;;;;;;;;;;;7571355;19;19937;-73
2024/04/05 13:26:16;;;;;;;;;;;;;;;;;;7582053;19;19911;-74
2024/04/05 13:28:51;;;;;;;;;;;;;;;;;;7572298;19;20953;-71
2024/04/05 13:31:23;;;;;;;;;;;;;;;;;;7584439;19;19915;-71
2024/04/05 13:33:54;;;;;;;;;;;;;;;;;;7556314;19;20782;-73
2024/04/05 13:36:26;;;;;;;;;;;;;;;;;;7586096;19;20520;-73
2024/04/05 13:38:57;;;;;;;;;;;;;;;;;;7562505;19;20393;-71
2024/04/05 13:41:29;;;;;;;;;;;;;;;;;;7578792;19;19938;-73
2024/04/05 13:44:03;;;;;;;;;;;;;;;;;;7560700;19;19918;-71
2024/04/05 13:46:34;;;;;;;;;;;;;;;;;;7574468;19;20200;-72
2024/04/05 13:49:05;;;;;;;;;;;;;;;;;;7558837;19;19923;-72
2024/04/05 13:51:38;;;;;;;;;;;;;;;;;;7550582;19;19946;-73
2024/04/05 13:54:10;;;;;;;;;;;;;;;;;;7564652;19;19923;-72
2024/04/05 13:56:41;;;;;;;;;;;;;;;;;;7570277;19;19923;-71
2024/04/05 13:59:13;;;;;;;;;;;;;;;;;;7584092;19;19923;-72
2024/04/05 14:01:44;;;;;;;;;;;;;;;;;;7569456;19;19931;-71
2024/04/05 14:04:16;;;;;;;;;;;;;;;;;;7567055;19;19931;-72
2024/04/05 14:06:47;;;;;;;;;;;;;;;;;;7558185;19;19922;-72
2024/04/05 14:09:19;;;;;;;;;;;;;;;;;;7584870;19;21151;-72
2024/04/05 14:11:50;;;;;;;;;;;;;;;;;;7569782;19;20264;-72
2024/04/05 14:14:21;;;;;;;;;;;;;;;;;;7545526;19;19926;-72
2024/04/05 14:16:54;;;;;;;;;;;;;;;;;;7569738;19;19958;-71
2024/04/05 14:19:25;;;;;;;;;;;;;;;;;;7575307;19;19922;-71
2024/04/05 14:21:57;;;;;;;;;;;;;;;;;;7580587;19;19926;-72
2024/04/05 14:24:28;;;;;;;;;;;;;;;;;;7577107;19;19923;-73
2024/04/05 14:27:00;;;;;;;;;;;;;;;;;;7549235;19;19927;-73
2024/04/05 14:29:31;;;;;;;;;;;;;;;;;;7567298;19;19925;-73
2024/04/05 14:32:03;;;;;;;;;;;;;;;;;;7584859;19;19919;-73
2024/04/05 14:34:35;;;;;;;;;;;;;;;;;;7580654;19;20381;-73
2024/04/05 14:37:06;;;;;;;;;;;;;;;;;;7563987;19;20436;-73
2024/04/05 14:39:38;;;;;;;;;;;;;;;;;;7582928;19;19918;-72
2024/04/05 14:42:10;;;;;;;;;;;;;;;;;;7565856;19;20005;-73
2024/04/05 14:44:41;;;;;;;;;;;;;;;;;;7562431;19;20020;-73
2024/04/05 14:47:13;;;;;;;;;;;;;;;;;;7586989;19;19927;-73
2024/04/05 14:49:44;;;;;;;;;;;;;;;;;;7574448;19;19955;-72
2024/04/05 14:52:16;;;;;;;;;;;;;;;;;;7584413;19;19926;-73
2024/04/05 14:54:47;;;;;;;;;;;;;;;;;;7558230;19;19937;-72
2024/04/05 14:57:19;;;;;;;;;;;;;;;;;;7568130;19;20740;-72
2024/04/05 14:59:50;;;;;;;;;;;;;;;;;;7570961;19;19923;-73
2024/04/05 15:02:21;;;;;;;;;;;;;;;;;;7583055;19;20383;-73
2024/04/05 15:04:53;;;;;;;;;;;;;;;;;;7574564;19;19927;-71
2024/04/05 15:07:25;;;;;;;;;;;;;;;;;;7566687;19;21043;-71
2024/04/05 15:09:56;;;;;;;;;;;;;;;;;;7567555;19;19919;-72
2024/04/05 15:12:28;;;;;;;;;;;;;;;;;;7570867;19;20477;-72
2024/04/05 15:15:01;;;;;;;;;;;;;;;;;;7578793;19;19943;-72
2024/04/05 15:17:34;;;;;;;;;;;;;;;;;;7556023;19;20857;-73
2024/04/05 15:20:05;;;;;;;;;;;;;;;;;;7567033;19;19919;-72
2024/04/05 15:22:37;;;;;;;;;;;;;;;;;;7591503;19;19926;-72
2024/04/05 15:25:08;;;;;;;;;;;;;;;;;;7579809;19;19940;-72
2024/04/05 15:27:40;;;;;;;;;;;;;;;;;;7595081;19;19941;-72
2024/04/05 15:30:12;;;;;;;;;;;;;;;;;;7568777;19;22341;-72
2024/04/05 15:32:43;;;;;;;;;;;;;;;;;;7590632;19;19926;-73
2024/04/05 15:35:15;;;;;;;;;;;;;;;;;;7582405;19;19922;-73
2024/04/05 15:37:46;;;;;;;;;;;;;;;;;;7570622;19;19943;-73
2024/04/05 15:40:18;;;;;;;;;;;;;;;;;;7589327;19;19929;-73
2024/04/05 15:42:49;;;;;;;;;;;;;;;;;;7561912;19;20826;-73
2024/04/05 15:45:21;;;;;;;;;;;;;;;;;;7592410;19;19935;-73
2024/04/05 15:47:52;;;;;;;;;;;;;;;;;;7542844;19;19919;-74
2024/04/05 15:50:24;;;;;;;;;;;;;;;;;;7570315;19;19923;-72
2024/04/05 15:52:56;;;;;;;;;;;;;;;;;;7553993;19;19922;-72
2024/04/05 15:55:27;;;;;;;;;;;;;;;;;;7568773;19;20407;-72
2024/04/05 15:57:59;;;;;;;;;;;;;;;;;;7555301;19;19926;-71
2024/04/05 16:00:31;;;;;;;;;;;;;;;;;;7549904;19;19932;-72
2024/04/05 16:03:03;;;;;;;;;;;;;;;;;;7554655;19;19919;-72
2024/04/05 16:05:35;;;;;;;;;;;;;;;;;;7552952;19;19950;-73
2024/04/05 16:08:07;;;;;;;;;;;;;;;;;;7535480;19;19927;-72
2024/04/05 16:10:39;;;;;;;;;;;;;;;;;;7551790;19;19927;-72
2024/04/05 16:13:11;;;;;;;;;;;;;;;;;;7553545;19;19937;-71
2024/04/05 16:15:42;;;;;;;;;;;;;;;;;;7573037;19;19919;-72
2024/04/05 16:18:14;;;;;;;;;;;;;;;;;;7547038;19;19914;-72
2024/04/05 16:20:45;;;;;;;;;;;;;;;;;;7559112;19;19942;-72
2024/04/05 16:23:17;;;;;;;;;;;;;;;;;;7575821;19;19914;-73
2024/04/05 16:25:48;;;;;;;;;;;;;;;;;;7541365;19;19919;-72
2024/04/05 16:28:20;;;;;;;;;;;;;;;;;;7560013;19;19933;-75
2024/04/05 16:30:52;;;;;;;;;;;;;;;;;;7586021;19;19951;-74
2024/04/05 16:33:24;;;;;;;;;;;;;;;;;;7580669;19;19914;-74
2024/04/05 16:35:55;;;;;;;;;;;;;;;;;;7559791;19;19927;-75
2024/04/05 16:38:29;;;;;;;;;;;;;;;;;;7587061;19;19923;-75
2024/04/05 16:41:01;;;;;;;;;;;;;;;;;;7554146;19;19923;-73
2024/04/05 16:43:36;;;;;;;;;;;;;;;;;;7539352;19;19969;-73
2024/04/05 16:46:07;;;;;;;;;;;;;;;;;;7546911;19;19918;-72
2024/04/05 16:48:39;;;;;;;;;;;;;;;;;;7545845;19;19929;-74
2024/04/05 16:51:11;;;;;;;;;;;;;;;;;;7558355;19;19932;-73
2024/04/05 16:53:43;;;;;;;;;;;;;;;;;;7573754;19;19931;-78
2024/04/05 16:56:18;;;;;;;;;;;;;;;;;;7568681;19;19919;-75
2024/04/05 16:58:49;;;;;;;;;;;;;;;;;;7588365;19;19932;-76
2024/04/05 17:01:20;;;;;;;;;;;;;;;;;;7563708;19;20926;-75
2024/04/05 17:03:54;;;;;;;;;;;;;;;;;;7578654;19;19927;-77
2024/04/05 17:06:26;;;;;;;;;;;;;;;;;;7583060;19;19979;-76
2024/04/05 17:08:58;;;;;;;;;;;;;;;;;;7584493;19;19950;-77
2024/04/05 17:11:30;;;;;;;;;;;;;;;;;;7594765;19;19945;-78
2024/04/05 17:14:02;;;;;;;;;;;;;;;;;;7570650;19;19996;-76
2024/04/05 17:16:33;;;;;;;;;;;;;;;;;;7558651;19;19915;-77